Terminal Aerodrome Forecast
Issued by NWS

Home | Current Version | Previous Version | Text Only | Print | Product List | Glossary On
Versions: 1 2 3 4 5 6 7 8 9 10 11 12
115
FTUS42 TJSJ 240520
TAFISX
TAF
TISX 240520Z 2406/2506 07005KT P6SM VCSH SCT025 BKN050
     FM241400 10010KT P6SM SCT030
     FM242330 09006KT P6SM FEW025 SCT060
      AMD NOT SKED=

USA.gov is the U.S. government's official web portal to all federal, state and local government web resources and services.